Port Lions, AK

2:15 AM AKDT on July 14, 2014 (GMT -0800)
Seldovia (PASO) Elev 30 ft | 59.44 °N, 151.70 °W | Change Station

Current weather conditions updated 22 minutes ago

Mostly Cloudy
Mostly Cloudy
51 °F
Feels Like 51 °F
N
0
Wind Variable Wind from North

Today is forecast to be Cooler than yesterday. Showers early tonight.

Today
High -- | Low -- °F
--% Chance of Precip.
Yesterday
High -- | Low -- °F
Precip. -- in
5:33 AM 11:02 PM
Waning Gibbous, 94% visible
Pressure 30.32 in
Visibility 10.0 miles
Clouds Mostly Cloudy 6000 ft
Dew Point 47 °F
Humidity 86%
Rainfall 0.00 in
Snow Depth Not available.
UV 0 out of 12
Pollen Not available.
Air Quality Not available.
Flu Activity Sporadic
METAR PASO 140953Z AUTO 00000KT 10SM BKN060 11/08 A3032 RMK AO2 SLP268 T01060083 TSNO $

More Conditions Fewer Conditions

Pressure 30.32 in
Visibility 10.0 miles
Clouds Mostly Cloudy 6000 ft
Dew Point 47 °F
Humidity 86%
Rainfall 0.00 in
Snow Depth Not available.
UV 0 out of 12
Pollen Not available.
Air Quality Not available.
Flu Activity Sporadic
METAR PASO 140953Z AUTO 00000KT 10SM BKN060 11/08 A3032 RMK AO2 SLP268 T01060083 TSNO $

More Conditions Fewer Conditions

10-Day Weather Forecast

Almanac

Astronomy

Jul. 14, 2014 Rise Set
Actual Time 5:33 AM AKDT 11:02 PM AKDT
Civil Twilight 4:28 AM AKDT 12:05 AM AKDT
Nautical Twilight 2:50 AM AKDT 1:45 AM AKDT
Astronomical Twilight Sun does not rise Sun does not rise
Moon 11:38 PM AKDT 9:19 AM AKDT
Length of Visible Light 19h 36m
Length of Day
17h 29m
Tomorrow will be 3m 6s shorter.
Waning Gibbous, 94% of the Moon is Illuminated
Today
Waning Gibbous
Jul 18
Last Quarter
Jul 26
New
Aug 3
First Quarter
Aug 10
Full

Today's Extremes

State Highs State Lows

Community

WunderPhotos

Upload Photos

1,733,593 photos uploaded!

Nearby

Snow Depth

Station Depth Elevation
Port Graham 0 in 300 ft
Nuka Glacier 1 in 1250 ft
Mcneil Canyon 1 in 1320 ft
MF Bradley River 23 in 2300 ft
Cooper Lake 21 in 1200 ft

Earthquake Activity

City Distance Mag. Time & Date
No recent earthquake activity has been reported nearby.
Minimum magnitude displayed is 2.5.

Coastal Water Temperatures

Place Temperature
No Stations Reporting

Nearby Weather Stations

Station Location Temp. Windchill Dew Point Humidity Wind Precip. Elev Updated Type
HADS TERROR R AT MOUTH NR KODIAK AK , Port Lions, AK 45 °F 45 °F - - North  at  - 0.00 in / hr 215 ft 1:00 AM AKDT MADIS
Pillar Mountain, Kodiak, AK 46.6 °F 47 °F 46 °F 99% SSW  at  2.2 mph - / hr 1204 ft 2:10 AM AKDT Normal

Show More Stations Show Fewer Stations